createdAt,value
2023-01-11T00:00:55.185Z,15.65
2023-01-11T00:03:22.104Z,15.18
2023-01-11T00:05:49.259Z,15.25
2023-01-11T00:08:16.246Z,15.65
2023-01-11T00:10:43.551Z,15.85
2023-01-11T00:13:11.585Z,15.75
2023-01-11T00:15:40.327Z,17.20
2023-01-11T00:18:07.756Z,17.73
2023-01-11T00:20:35.276Z,17.55
2023-01-11T00:23:02.381Z,18.58
2023-01-11T00:25:29.618Z,18.30
2023-01-11T00:27:56.680Z,17.58
2023-01-11T00:30:24.472Z,17.65
2023-01-11T00:32:57.425Z,17.58
2023-01-11T00:35:26.817Z,17.73
2023-01-11T00:37:54.670Z,18.05
2023-01-11T00:40:24.026Z,17.55
2023-01-11T00:43:09.802Z,17.45
2023-01-11T00:45:55.930Z,17.08
2023-01-11T00:48:23.116Z,16.75
2023-01-11T00:50:57.252Z,16.52
2023-01-11T00:53:24.410Z,15.90
2023-01-11T00:55:51.722Z,16.10
2023-01-11T00:58:18.968Z,15.18
2023-01-11T01:00:46.316Z,14.65
2023-01-11T01:03:13.311Z,13.55
2023-01-11T01:05:40.636Z,13.10
2023-01-11T01:08:07.775Z,12.95
2023-01-11T01:10:35.059Z,12.70
2023-01-11T01:13:21.539Z,13.13
2023-01-11T01:15:48.782Z,13.43
2023-01-11T01:18:15.930Z,13.85
2023-01-11T01:20:43.195Z,13.55
2023-01-11T01:23:10.127Z,13.50
2023-01-11T01:25:37.998Z,14.25
2023-01-11T01:28:05.132Z,14.63
2023-01-11T01:30:33.618Z,15.52
2023-01-11T01:33:00.635Z,14.95
2023-01-11T01:35:28.361Z,15.88
2023-01-11T01:37:55.315Z,16.02
2023-01-11T01:40:22.744Z,16.75
2023-01-11T01:42:54.537Z,17.13
2023-01-11T01:45:26.177Z,16.33
2023-01-11T01:48:06.158Z,16.58
2023-01-11T01:50:40.457Z,16.05
2023-01-11T01:53:17.043Z,16.30
2023-01-11T01:55:51.951Z,16.80
2023-01-11T01:58:26.638Z,16.65
2023-01-11T02:00:54.194Z,15.45
2023-01-11T02:03:26.828Z,14.57
2023-01-11T02:05:54.682Z,14.65
2023-01-11T02:08:38.003Z,14.00
2023-01-11T02:11:27.652Z,13.55
2023-01-11T02:13:58.634Z,12.90
2023-01-11T02:16:26.759Z,11.38
2023-01-11T02:18:55.631Z,11.48
2023-01-11T02:21:39.627Z,12.25
2023-01-11T02:24:49.685Z,12.90
2023-01-11T02:27:54.843Z,12.32
2023-01-11T02:30:35.044Z,11.93
2023-01-11T02:33:49.336Z,11.98
2023-01-11T02:37:04.673Z,11.50
2023-01-11T02:40:03.367Z,10.82
2023-01-11T02:42:58.394Z,11.43
2023-01-11T02:45:47.299Z,12.00
2023-01-11T02:48:36.711Z,11.00
2023-01-11T02:51:22.542Z,12.05
2023-01-11T02:54:04.332Z,10.70
2023-01-11T02:56:40.448Z,9.95
2023-01-11T02:59:13.225Z,10.50
2023-01-11T03:01:53.221Z,10.00
2023-01-11T03:04:35.827Z,9.85
2023-01-11T03:07:40.158Z,10.20
2023-01-11T03:10:55.946Z,9.80
2023-01-11T03:14:04.595Z,9.32
2023-01-11T03:16:51.762Z,9.40
2023-01-11T03:19:41.650Z,9.48
2023-01-11T03:22:23.291Z,9.50
2023-01-11T03:25:12.948Z,8.97
2023-01-11T03:32:45.559Z,8.30
2023-01-11T03:35:38.322Z,8.50
2023-01-11T03:38:25.082Z,8.75
2023-01-11T03:41:06.632Z,7.95
2023-01-11T03:43:40.322Z,8.57
2023-01-11T03:46:16.892Z,8.48
2023-01-11T03:48:59.233Z,9.05
2023-01-11T03:51:31.576Z,9.02
2023-01-11T03:54:14.133Z,9.20
2023-01-11T03:56:56.414Z,8.60
2023-01-11T03:59:24.186Z,8.48
2023-01-11T04:01:55.146Z,9.60
2023-01-11T04:04:23.381Z,8.52
2023-01-11T04:06:50.807Z,9.02
2023-01-11T04:09:17.894Z,8.10
2023-01-11T04:11:45.726Z,8.00
2023-01-11T04:14:12.747Z,8.43
2023-01-11T04:16:40.055Z,8.57
2023-01-11T04:19:07.071Z,8.38
2023-01-11T04:21:34.219Z,9.30
2023-01-11T04:24:01.323Z,8.00
2023-01-11T04:26:28.528Z,9.63
2023-01-11T04:28:56.029Z,9.00
2023-01-11T04:31:23.511Z,9.23
2023-01-11T04:33:50.504Z,8.90
2023-01-11T04:36:18.067Z,9.35
2023-01-11T04:38:45.124Z,9.10
2023-01-11T04:41:30.901Z,8.77
2023-01-11T04:43:57.957Z,9.18
2023-01-11T04:46:25.471Z,8.50
2023-01-11T04:48:52.906Z,9.20
2023-01-11T04:51:20.435Z,8.98
2023-01-11T04:53:51.783Z,8.98
2023-01-11T04:56:19.583Z,8.43
2023-01-11T04:58:46.789Z,8.80
2023-01-11T05:01:19.377Z,7.88
2023-01-11T05:03:47.308Z,8.80
2023-01-11T05:06:15.629Z,8.50
2023-01-11T05:08:47.599Z,8.38
2023-01-11T05:11:17.430Z,7.38
2023-01-11T05:13:45.150Z,8.32
2023-01-11T05:16:21.137Z,7.57
2023-01-11T05:18:54.882Z,8.55
2023-01-11T05:21:26.772Z,8.18
2023-01-11T05:23:54.894Z,8.38
2023-01-11T05:26:27.220Z,8.23
2023-01-11T05:28:57.464Z,8.13
2023-01-11T05:31:25.517Z,8.38
2023-01-11T05:33:53.333Z,8.27
2023-01-11T05:36:23.058Z,8.93
2023-01-11T05:38:52.635Z,8.02
2023-01-11T05:41:23.391Z,8.02
2023-01-11T05:44:12.079Z,8.02
2023-01-11T05:46:42.729Z,8.15
2023-01-11T05:49:12.156Z,8.60
2023-01-11T05:51:41.036Z,8.10
2023-01-11T05:54:12.871Z,8.43
2023-01-11T05:56:42.505Z,8.50
2023-01-11T05:59:09.834Z,8.80
2023-01-11T06:01:37.936Z,8.60
2023-01-11T06:04:05.184Z,9.10
2023-01-11T06:06:33.552Z,8.70
2023-01-11T06:09:00.779Z,8.63
2023-01-11T06:11:28.425Z,9.27
2023-01-11T06:13:55.514Z,9.02
2023-01-11T06:16:23.809Z,9.07
2023-01-11T06:18:53.099Z,8.90
2023-01-11T06:21:21.645Z,9.25
2023-01-11T06:23:53.188Z,9.95
2023-01-11T06:26:23.155Z,9.02
2023-01-11T06:28:51.691Z,8.70
2023-01-11T06:31:19.719Z,9.48
2023-01-11T06:33:47.550Z,9.82
2023-01-11T06:36:16.180Z,9.60
2023-01-11T06:38:44.339Z,9.45
2023-01-11T06:41:13.268Z,9.15
2023-01-11T06:43:42.058Z,9.40
2023-01-11T06:46:15.577Z,10.23
2023-01-11T06:48:43.717Z,10.10
2023-01-11T06:51:12.088Z,9.50
2023-01-11T06:53:41.158Z,10.32
2023-01-11T06:56:13.132Z,11.63
2023-01-11T06:58:40.583Z,10.85
2023-01-11T07:01:08.232Z,9.90
2023-01-11T07:03:35.366Z,10.90
2023-01-11T07:06:04.299Z,11.27
2023-01-11T07:08:31.342Z,13.85
2023-01-11T07:10:58.643Z,13.25
2023-01-11T07:13:25.593Z,11.75
2023-01-11T07:15:57.246Z,11.60
2023-01-11T07:18:24.273Z,13.57
2023-01-11T07:20:52.058Z,13.73
2023-01-11T07:23:19.356Z,11.85
2023-01-11T07:25:49.870Z,11.43
2023-01-11T07:28:17.184Z,11.18
2023-01-11T07:30:57.346Z,10.95
2023-01-11T07:33:26.442Z,10.02
2023-01-11T07:35:54.535Z,10.10
2023-01-11T07:38:22.601Z,9.85
2023-01-11T07:40:49.898Z,9.13
2023-01-11T07:43:23.679Z,9.13
2023-01-11T07:45:52.876Z,9.60
2023-01-11T07:48:26.300Z,9.63
2023-01-11T07:50:55.212Z,10.20
2023-01-11T07:53:25.504Z,10.57
2023-01-11T07:55:55.820Z,12.30
2023-01-11T07:58:23.220Z,13.43
2023-01-11T08:00:50.663Z,15.52
2023-01-11T08:03:18.034Z,13.18
2023-01-11T08:05:51.276Z,14.45
2023-01-11T08:08:18.560Z,14.50
2023-01-11T08:10:45.815Z,13.57
2023-01-11T08:13:33.224Z,14.45
2023-01-11T08:16:02.499Z,15.65
2023-01-11T08:18:29.444Z,18.58
2023-01-11T08:20:56.701Z,18.60
2023-01-11T08:23:23.864Z,18.77
2023-01-11T08:25:57.220Z,15.82
2023-01-11T08:28:24.179Z,14.02
2023-01-11T08:30:51.470Z,14.48
2023-01-11T08:33:19.067Z,14.52
2023-01-11T08:35:46.252Z,15.23
2023-01-11T08:38:13.358Z,16.45
2023-01-11T08:40:40.565Z,17.30
2023-01-11T08:43:07.504Z,17.48
2023-01-11T08:45:34.681Z,17.05
2023-01-11T08:48:02.042Z,17.52
2023-01-11T08:50:29.373Z,17.50
2023-01-11T08:52:56.392Z,17.55
2023-01-11T08:55:23.631Z,16.90
2023-01-11T08:57:50.781Z,17.50
2023-01-11T09:00:19.153Z,16.40
2023-01-11T09:02:46.221Z,16.55
2023-01-11T09:05:13.618Z,16.75
2023-01-11T09:07:40.720Z,16.85
2023-01-11T09:10:08.971Z,23.45
2023-01-11T09:12:36.018Z,17.95
2023-01-11T09:15:05.828Z,17.10
2023-01-11T09:17:34.137Z,16.60
2023-01-11T09:20:01.383Z,17.55
2023-01-11T09:22:28.499Z,16.70
2023-01-11T09:24:58.833Z,17.92
2023-01-11T09:27:26.386Z,15.30
2023-01-11T09:29:53.630Z,14.32
2023-01-11T09:32:20.701Z,17.15
2023-01-11T09:34:49.617Z,14.95
2023-01-11T09:37:17.154Z,14.48
2023-01-11T09:39:44.719Z,13.68
2023-01-11T09:42:36.531Z,12.30
2023-01-11T09:45:20.256Z,11.13
2023-01-11T09:48:03.605Z,9.30
2023-01-11T09:50:41.829Z,8.60
2023-01-11T09:53:28.026Z,7.47
2023-01-11T09:55:58.508Z,9.02
2023-01-11T09:58:54.404Z,7.28
2023-01-11T10:01:38.722Z,7.88
2023-01-11T10:05:18.524Z,8.82
2023-01-11T10:18:27.917Z,6.38
2023-01-11T10:18:39.107Z,7.03
2023-01-11T10:20:55.083Z,9.50
2023-01-11T10:23:33.192Z,8.13
2023-01-11T10:26:07.109Z,9.60
2023-01-11T10:28:43.205Z,7.70
2023-01-11T10:31:45.242Z,8.38
2023-01-11T10:34:38.849Z,7.18
2023-01-11T10:37:46.728Z,7.43
2023-01-11T10:40:39.104Z,6.45
2023-01-11T10:43:20.174Z,6.35
2023-01-11T10:45:57.955Z,7.10
2023-01-11T10:48:38.613Z,7.05
2023-01-11T10:51:49.080Z,6.40
2023-01-11T10:54:24.451Z,7.07
2023-01-11T10:57:35.563Z,7.32
2023-01-11T11:00:23.778Z,7.20
2023-01-11T11:02:56.638Z,9.93
2023-01-11T11:05:55.624Z,7.20
2023-01-11T11:08:41.825Z,6.85
2023-01-11T11:11:36.853Z,6.57
2023-01-11T11:14:35.188Z,6.38
2023-01-11T11:17:36.743Z,6.00
2023-01-11T11:20:22.446Z,5.97
2023-01-11T11:22:56.232Z,5.32
2023-01-11T11:25:32.512Z,5.25
2023-01-11T11:28:25.728Z,5.78
2023-01-11T11:33:46.319Z,6.18
2023-01-11T11:36:14.776Z,5.50
2023-01-11T11:39:18.854Z,4.70
2023-01-11T11:41:54.420Z,4.45
2023-01-11T11:44:26.524Z,4.20
2023-01-11T11:47:14.917Z,4.07
2023-01-11T11:49:43.148Z,3.80
2023-01-11T11:52:17.518Z,3.33
2023-01-11T11:54:59.237Z,3.80
2023-01-11T11:57:41.697Z,3.55
2023-01-11T12:00:34.904Z,3.63
2023-01-11T12:03:32.162Z,3.58
2023-01-11T12:06:03.798Z,3.42
2023-01-11T12:08:35.002Z,3.60
2023-01-11T12:11:08.172Z,3.35
2023-01-11T12:13:38.943Z,3.50
2023-01-11T12:16:22.854Z,4.28
2023-01-11T12:18:49.912Z,3.47
2023-01-11T12:21:21.816Z,3.85
2023-01-11T12:24:19.416Z,5.30
2023-01-11T12:27:11.942Z,3.65
2023-01-11T12:30:05.085Z,3.60
2023-01-11T12:32:53.912Z,4.07
2023-01-11T12:35:28.020Z,3.50
2023-01-11T12:38:43.576Z,3.35
2023-01-11T12:41:48.236Z,3.25
2023-01-11T12:45:01.675Z,3.53
2023-01-11T12:47:58.921Z,3.13
2023-01-11T12:50:56.766Z,3.25
2023-01-11T12:53:37.549Z,3.08
2023-01-11T12:56:26.051Z,3.00
2023-01-11T12:59:06.867Z,3.05
2023-01-11T13:02:03.044Z,3.25
2023-01-11T13:04:56.624Z,3.30
2023-01-11T13:07:43.274Z,3.10
2023-01-11T13:10:29.851Z,3.10
2023-01-11T13:13:21.852Z,3.13
2023-01-11T13:16:09.526Z,2.97
2023-01-11T13:19:15.656Z,3.30
2023-01-11T13:21:53.311Z,2.65
2023-01-11T13:24:31.214Z,3.05
2023-01-11T13:27:14.014Z,2.90
2023-01-11T13:29:47.195Z,3.20
2023-01-11T13:32:23.395Z,3.03
2023-01-11T13:35:27.581Z,3.47
2023-01-11T13:38:08.326Z,3.20
2023-01-11T13:40:49.718Z,3.25
2023-01-11T13:43:46.431Z,2.92
2023-01-11T13:46:40.355Z,2.97
2023-01-11T13:49:44.699Z,3.50
2023-01-11T13:52:24.802Z,4.05
2023-01-11T13:55:26.433Z,3.53
2023-01-11T13:58:07.258Z,3.23
2023-01-11T14:01:10.709Z,3.25
2023-01-11T14:03:56.633Z,3.33
2023-01-11T14:06:31.730Z,3.45
2023-01-11T14:09:27.960Z,3.00
2023-01-11T14:12:35.688Z,3.00
2023-01-11T14:15:28.677Z,3.42
2023-01-11T14:18:09.242Z,2.97
2023-01-11T14:21:13.099Z,3.20
2023-01-11T14:23:51.404Z,3.30
2023-01-11T14:26:43.636Z,3.22
2023-01-11T14:30:04.528Z,3.27
2023-01-11T14:33:01.946Z,3.60
2023-01-11T14:36:15.355Z,2.70
2023-01-11T14:39:20.784Z,3.17
2023-01-11T14:42:45.633Z,3.33
2023-01-11T14:45:52.019Z,3.03
2023-01-11T14:48:48.280Z,3.30
2023-01-11T14:51:32.556Z,3.67
2023-01-11T14:54:23.203Z,3.22
2023-01-11T14:56:57.735Z,3.40
2023-01-11T14:59:31.259Z,3.20
2023-01-11T15:02:04.512Z,3.53
2023-01-11T15:04:59.195Z,3.50
2023-01-11T15:07:29.633Z,3.20
2023-01-11T15:09:59.444Z,3.20
2023-01-11T15:12:39.324Z,3.15
2023-01-11T15:15:21.113Z,3.58
2023-01-11T15:18:15.835Z,3.70
2023-01-11T15:21:03.609Z,3.97
2023-01-11T15:23:48.426Z,3.97
2023-01-11T15:26:19.196Z,3.88
2023-01-11T15:29:00.188Z,3.92
2023-01-11T15:32:01.364Z,4.28
2023-01-11T15:34:31.722Z,3.92
2023-01-11T15:37:02.297Z,4.20
2023-01-11T15:39:58.886Z,4.65
2023-01-11T15:42:59.023Z,4.60
2023-01-11T15:46:06.639Z,5.45
2023-01-11T15:48:57.551Z,6.28
2023-01-11T15:51:45.950Z,6.05
2023-01-11T15:54:28.005Z,11.35
2023-01-11T15:57:22.668Z,16.55
2023-01-11T16:00:34.083Z,17.20
2023-01-11T16:03:30.054Z,18.08
2023-01-11T16:06:27.900Z,21.38
2023-01-11T16:09:07.229Z,20.58
2023-01-11T16:12:00.513Z,22.13
2023-01-11T16:14:57.575Z,22.42
2023-01-11T16:17:26.363Z,20.40
2023-01-11T16:19:56.621Z,19.98
2023-01-11T16:22:28.135Z,18.55
2023-01-11T16:25:01.788Z,18.27
2023-01-11T16:27:34.838Z,17.42
2023-01-11T16:30:02.874Z,16.98
2023-01-11T16:32:34.583Z,16.42
2023-01-11T16:35:17.304Z,14.93
2023-01-11T16:37:50.207Z,14.93
2023-01-11T16:40:42.960Z,13.73
2023-01-11T16:43:24.388Z,14.18
2023-01-11T16:45:54.500Z,13.05
2023-01-11T16:48:28.450Z,13.52
2023-01-11T16:51:16.572Z,12.75
2023-01-11T16:53:55.405Z,12.07
2023-01-11T16:56:24.473Z,11.00
2023-01-11T16:59:27.168Z,11.52
2023-01-11T17:02:04.450Z,10.63
2023-01-11T17:04:38.222Z,10.60
2023-01-11T17:07:20.209Z,11.27
2023-01-11T17:09:47.462Z,11.10
2023-01-11T17:12:24.134Z,12.00
2023-01-11T17:15:09.363Z,11.50
2023-01-11T17:17:37.953Z,11.63
2023-01-11T17:20:20.692Z,11.50
2023-01-11T17:25:37.270Z,10.73
2023-01-11T17:28:19.684Z,10.80
2023-01-11T17:30:51.231Z,11.73
2023-01-11T17:33:29.246Z,9.00
2023-01-11T17:35:57.397Z,11.68
2023-01-11T17:38:27.268Z,10.90
2023-01-11T17:40:58.572Z,11.55
2023-01-11T17:43:47.673Z,12.45
2023-01-11T17:46:20.459Z,11.80
2023-01-11T17:48:59.786Z,13.27
2023-01-11T17:51:31.398Z,12.98
2023-01-11T17:53:58.851Z,14.07
2023-01-11T17:56:54.454Z,14.27
2023-01-11T17:59:24.297Z,14.70
2023-01-11T18:01:57.620Z,14.43
2023-01-11T18:04:27.258Z,14.13
2023-01-11T18:07:04.622Z,13.88
2023-01-11T18:09:36.212Z,13.77
2023-01-11T18:12:25.927Z,14.98
2023-01-11T18:15:03.604Z,15.38
2023-01-11T18:17:42.014Z,15.57
2023-01-11T18:20:15.244Z,14.13
2023-01-11T18:22:59.642Z,15.32
2023-01-11T18:25:30.841Z,14.57
2023-01-11T18:28:30.032Z,15.05
2023-01-11T18:31:01.701Z,15.52
2023-01-11T18:33:33.321Z,15.40
2023-01-11T18:36:04.021Z,14.97
2023-01-11T18:38:34.787Z,15.48
2023-01-11T18:41:28.100Z,15.15
2023-01-11T18:46:23.083Z,17.15
2023-01-11T18:48:50.267Z,18.25
2023-01-11T18:51:33.635Z,17.35
2023-01-11T18:54:00.670Z,17.52
2023-01-11T18:56:28.461Z,17.70
2023-01-11T18:58:55.438Z,17.75
2023-01-11T19:01:22.729Z,18.80
2023-01-11T19:03:50.704Z,20.27
2023-01-11T19:06:20.939Z,22.70
2023-01-11T19:08:48.034Z,25.08
2023-01-11T19:11:16.729Z,24.85
2023-01-11T19:13:46.617Z,27.05
2023-01-11T19:16:15.070Z,27.77
2023-01-11T19:18:42.031Z,26.83
2023-01-11T19:21:13.166Z,28.92
2023-01-11T19:23:41.283Z,29.95
2023-01-11T19:26:08.519Z,31.38
2023-01-11T19:28:37.027Z,32.58
2023-01-11T19:31:11.296Z,31.35
2023-01-11T19:33:40.166Z,30.75
2023-01-11T19:36:09.250Z,29.75
2023-01-11T19:38:37.129Z,28.33
2023-01-11T19:41:08.108Z,26.60
2023-01-11T19:43:36.206Z,27.33
2023-01-11T19:46:03.959Z,25.05
2023-01-11T19:48:34.482Z,24.95
2023-01-11T19:51:11.502Z,24.73
2023-01-11T19:53:38.564Z,23.55
2023-01-11T19:56:08.767Z,23.13
2023-01-11T19:58:38.930Z,22.50
2023-01-11T20:01:11.954Z,21.88
2023-01-11T20:03:45.378Z,21.83
2023-01-11T20:06:12.734Z,21.20
2023-01-11T20:08:41.134Z,20.60
2023-01-11T20:11:15.145Z,22.30
2023-01-11T20:13:43.111Z,21.38
2023-01-11T20:16:13.453Z,21.38
2023-01-11T20:18:42.899Z,22.80
2023-01-11T20:21:11.482Z,21.85
2023-01-11T20:23:38.577Z,20.65
2023-01-11T20:26:07.816Z,21.83
2023-01-11T20:28:35.137Z,20.08
2023-01-11T20:31:06.813Z,20.55
2023-01-11T20:33:34.598Z,21.13
2023-01-11T20:36:18.048Z,21.35
2023-01-11T20:38:46.218Z,22.02
2023-01-11T20:41:36.138Z,21.45
2023-01-11T20:44:04.310Z,22.77
2023-01-11T20:46:32.201Z,22.35
2023-01-11T20:49:00.264Z,23.00
2023-01-11T20:51:27.526Z,22.73
2023-01-11T20:53:54.469Z,24.95
2023-01-11T20:56:21.997Z,24.63
2023-01-11T20:58:51.312Z,25.15
2023-01-11T21:01:26.802Z,25.73
2023-01-11T21:03:57.385Z,25.67
2023-01-11T21:06:24.660Z,26.88
2023-01-11T21:08:56.843Z,25.92
2023-01-11T21:11:24.844Z,25.75
2023-01-11T21:16:25.308Z,25.40
2023-01-11T21:18:57.369Z,24.75
2023-01-11T21:21:29.064Z,25.33
2023-01-11T21:23:59.152Z,24.95
2023-01-11T21:26:28.236Z,24.98
2023-01-11T21:29:02.332Z,24.33
2023-01-11T21:31:33.617Z,24.25
2023-01-11T21:34:03.330Z,23.73
2023-01-11T21:36:32.015Z,22.70
2023-01-11T21:39:00.560Z,22.40
2023-01-11T21:41:49.609Z,22.00
2023-01-11T21:44:18.992Z,22.05
2023-01-11T21:46:46.809Z,21.00
2023-01-11T21:49:14.801Z,21.17
2023-01-11T21:51:42.853Z,21.08
2023-01-11T21:54:13.165Z,20.30
2023-01-11T21:56:43.861Z,19.75
2023-01-11T21:59:11.776Z,20.05
2023-01-11T22:01:42.616Z,18.77
2023-01-11T22:04:14.276Z,20.45
2023-01-11T22:06:47.264Z,16.95
2023-01-11T22:09:14.517Z,20.38
2023-01-11T22:11:41.662Z,19.77
2023-01-11T22:14:09.342Z,20.13
2023-01-11T22:16:37.304Z,19.30
2023-01-11T22:19:07.356Z,19.33
2023-01-11T22:21:35.993Z,19.92
2023-01-11T22:24:05.025Z,20.00
2023-01-11T22:26:38.532Z,19.73
2023-01-11T22:29:12.630Z,19.75
2023-01-11T22:31:45.494Z,20.63
2023-01-11T22:34:14.281Z,20.10
2023-01-11T22:36:42.743Z,20.90
2023-01-11T22:39:11.133Z,21.98
2023-01-11T22:41:40.505Z,20.38
2023-01-11T22:44:09.218Z,21.73
2023-01-11T22:46:36.991Z,20.67
2023-01-11T22:49:06.191Z,20.33
2023-01-11T22:51:33.741Z,19.67
2023-01-11T22:54:00.706Z,22.08
2023-01-11T22:56:29.367Z,22.13
2023-01-11T22:58:58.058Z,22.67
2023-01-11T23:01:32.884Z,22.67
2023-01-11T23:04:00.749Z,23.23
2023-01-11T23:06:46.360Z,23.23
2023-01-11T23:09:16.553Z,27.33
2023-01-11T23:12:03.897Z,28.65
2023-01-11T23:14:32.757Z,30.17
2023-01-11T23:17:06.928Z,29.13
2023-01-11T23:19:40.329Z,30.45
2023-01-11T23:22:09.691Z,31.75
2023-01-11T23:24:37.784Z,33.13
2023-01-11T23:27:05.792Z,31.50
2023-01-11T23:29:33.294Z,31.55
2023-01-11T23:32:00.663Z,30.15
2023-01-11T23:34:28.082Z,29.23
2023-01-11T23:36:56.159Z,30.55
2023-01-11T23:39:23.719Z,29.40
2023-01-11T23:42:09.898Z,30.42
2023-01-11T23:44:36.947Z,28.23
2023-01-11T23:47:22.556Z,29.02
2023-01-11T23:49:52.852Z,29.08
2023-01-11T23:52:24.546Z,31.10
2023-01-11T23:54:52.092Z,30.05
2023-01-11T23:57:21.202Z,28.73
2023-01-11T23:59:48.290Z,28.90
